createdAt,value
2023-03-29T00:00:11.380Z,12.23
2023-03-29T00:02:43.047Z,10.07
2023-03-29T00:05:12.263Z,11.80
2023-03-29T00:07:40.357Z,15.60
2023-03-29T00:10:10.117Z,13.88
2023-03-29T00:12:39.578Z,12.45
2023-03-29T00:15:10.409Z,10.50
2023-03-29T00:17:38.577Z,12.32
2023-03-29T00:20:10.069Z,11.77
2023-03-29T00:22:39.812Z,14.15
2023-03-29T00:25:08.171Z,10.02
2023-03-29T00:27:36.436Z,12.85
2023-03-29T00:30:05.734Z,12.27
2023-03-29T00:32:35.634Z,13.32
2023-03-29T00:35:05.123Z,12.18
2023-03-29T00:37:32.856Z,15.23
2023-03-29T00:40:00.814Z,11.20
2023-03-29T00:42:29.192Z,15.35
2023-03-29T00:45:11.197Z,16.00
2023-03-29T00:47:43.030Z,13.18
2023-03-29T00:50:14.342Z,14.43
2023-03-29T00:52:43.963Z,11.95
2023-03-29T00:55:14.465Z,11.77
2023-03-29T00:57:46.521Z,10.75
2023-03-29T01:00:18.076Z,13.57
2023-03-29T01:02:50.892Z,15.98
2023-03-29T01:05:21.257Z,7.85
2023-03-29T01:07:53.698Z,11.68
2023-03-29T01:10:26.260Z,10.05
2023-03-29T01:13:00.239Z,12.27
2023-03-29T01:15:28.663Z,11.73
2023-03-29T01:17:58.411Z,13.10
2023-03-29T01:20:35.383Z,12.50
2023-03-29T01:23:18.643Z,12.23
2023-03-29T01:25:49.192Z,15.13
2023-03-29T01:28:21.149Z,11.52
2023-03-29T01:30:52.151Z,10.15
2023-03-29T01:33:23.417Z,9.88
2023-03-29T01:35:57.651Z,13.57
2023-03-29T01:38:29.228Z,13.70
2023-03-29T01:40:57.172Z,11.35
2023-03-29T01:43:29.202Z,14.48
2023-03-29T01:46:02.950Z,11.68
2023-03-29T01:48:33.301Z,12.75
2023-03-29T01:51:04.723Z,12.38
2023-03-29T01:53:36.734Z,11.02
2023-03-29T01:56:08.650Z,12.77
2023-03-29T01:58:39.869Z,12.70
2023-03-29T02:01:10.858Z,12.25
2023-03-29T02:03:43.111Z,10.95
2023-03-29T02:06:12.225Z,8.43
2023-03-29T02:08:40.806Z,11.85
2023-03-29T02:11:08.826Z,10.32
2023-03-29T02:13:38.059Z,13.70
2023-03-29T02:16:11.979Z,14.90
2023-03-29T02:18:41.139Z,11.25
2023-03-29T02:21:09.878Z,10.05
2023-03-29T02:23:39.538Z,10.35
2023-03-29T02:26:08.903Z,10.75
2023-03-29T02:28:38.223Z,12.30
2023-03-29T02:31:11.469Z,10.43
2023-03-29T02:33:43.255Z,11.30
2023-03-29T02:36:13.686Z,12.38
2023-03-29T02:38:41.767Z,11.27
2023-03-29T02:41:10.658Z,13.02
2023-03-29T02:43:42.127Z,10.73
2023-03-29T02:46:12.167Z,12.15
2023-03-29T02:48:40.173Z,12.77
2023-03-29T02:51:14.347Z,12.32
2023-03-29T02:53:43.648Z,9.73
2023-03-29T02:56:11.359Z,9.33
2023-03-29T02:58:39.082Z,12.83
2023-03-29T03:01:09.633Z,10.60
2023-03-29T03:03:37.644Z,11.57
2023-03-29T03:06:06.823Z,10.57
2023-03-29T03:08:34.971Z,8.20
2023-03-29T03:11:03.606Z,10.13
2023-03-29T03:13:31.822Z,10.90
2023-03-29T03:16:01.057Z,10.20
2023-03-29T03:18:30.169Z,10.35
2023-03-29T03:20:59.398Z,8.83
2023-03-29T03:23:27.336Z,11.20
2023-03-29T03:25:55.350Z,12.65
2023-03-29T03:28:25.313Z,14.93
2023-03-29T03:30:54.171Z,8.38
2023-03-29T03:34:02.561Z,7.82
2023-03-29T03:36:38.409Z,8.88
2023-03-29T03:39:07.563Z,7.68
2023-03-29T03:41:35.691Z,8.13
2023-03-29T03:44:03.699Z,9.35
2023-03-29T03:46:31.733Z,9.60
2023-03-29T03:49:02.344Z,8.23
2023-03-29T03:51:33.029Z,11.53
2023-03-29T03:54:01.098Z,10.50
2023-03-29T03:56:35.587Z,9.40
2023-03-29T03:59:24.890Z,14.50
2023-03-29T04:02:02.375Z,10.18
2023-03-29T04:04:32.206Z,8.45
2023-03-29T04:07:17.710Z,7.07
2023-03-29T04:09:57.761Z,11.30
2023-03-29T04:12:44.032Z,7.97
2023-03-29T04:15:12.100Z,6.43
2023-03-29T04:17:45.358Z,6.10
2023-03-29T04:20:28.188Z,6.20
2023-03-29T04:22:57.224Z,9.35
2023-03-29T04:25:25.292Z,9.50
2023-03-29T04:28:25.111Z,8.98
2023-03-29T04:31:05.392Z,9.60
2023-03-29T04:33:39.825Z,6.77
2023-03-29T04:36:10.593Z,5.97
2023-03-29T04:38:38.396Z,8.82
2023-03-29T04:41:06.890Z,5.70
2023-03-29T04:43:55.983Z,8.10
2023-03-29T04:46:28.298Z,6.85
2023-03-29T04:49:15.129Z,5.93
2023-03-29T04:51:47.953Z,8.33
2023-03-29T04:54:19.341Z,8.13
2023-03-29T04:57:07.872Z,7.30
2023-03-29T04:59:38.453Z,5.17
2023-03-29T05:02:16.998Z,8.03
2023-03-29T05:04:48.009Z,7.38
2023-03-29T05:07:19.469Z,5.60
2023-03-29T05:09:48.601Z,5.90
2023-03-29T05:12:16.426Z,7.57
2023-03-29T05:14:52.535Z,7.47
2023-03-29T05:17:21.923Z,5.90
2023-03-29T05:19:51.388Z,7.35
2023-03-29T05:22:22.003Z,6.97
2023-03-29T05:24:50.173Z,6.28
2023-03-29T05:27:22.766Z,9.65
2023-03-29T05:30:09.809Z,8.13
2023-03-29T05:32:49.105Z,7.65
2023-03-29T05:35:20.419Z,7.97
2023-03-29T05:37:49.660Z,8.07
2023-03-29T05:40:17.963Z,7.18
2023-03-29T05:43:09.141Z,8.85
2023-03-29T05:45:37.088Z,10.68
2023-03-29T05:48:05.528Z,7.53
2023-03-29T05:50:33.866Z,9.20
2023-03-29T05:53:03.553Z,8.80
2023-03-29T05:55:31.848Z,15.97
2023-03-29T05:57:59.595Z,8.60
2023-03-29T06:00:34.292Z,11.35
2023-03-29T06:03:21.497Z,10.90
2023-03-29T06:05:56.240Z,9.63
2023-03-29T06:08:25.972Z,13.02
2023-03-29T06:11:08.898Z,15.65
2023-03-29T06:14:03.364Z,11.32
2023-03-29T06:16:31.311Z,11.77
2023-03-29T06:18:59.179Z,12.85
2023-03-29T06:21:28.594Z,11.73
2023-03-29T06:23:58.643Z,12.93
2023-03-29T06:26:28.723Z,11.57
2023-03-29T06:28:57.327Z,12.88
2023-03-29T06:31:25.222Z,13.02
2023-03-29T06:33:53.805Z,11.63
2023-03-29T06:36:34.844Z,11.93
2023-03-29T06:39:05.395Z,14.05
2023-03-29T06:41:49.310Z,12.75
2023-03-29T06:44:30.432Z,14.48
2023-03-29T06:47:07.308Z,13.02
2023-03-29T06:49:35.044Z,14.20
2023-03-29T06:52:11.477Z,11.40
2023-03-29T06:54:40.858Z,12.27
2023-03-29T06:57:09.164Z,12.02
2023-03-29T06:59:36.787Z,14.15
2023-03-29T07:02:39.921Z,11.45
2023-03-29T07:05:11.977Z,11.13
2023-03-29T07:07:56.581Z,10.82
2023-03-29T07:10:39.224Z,10.63
2023-03-29T07:13:21.839Z,10.07
2023-03-29T07:15:51.443Z,11.70
2023-03-29T07:18:22.438Z,8.82
2023-03-29T07:20:52.129Z,11.55
2023-03-29T07:23:19.854Z,11.82
2023-03-29T07:25:50.396Z,9.65
2023-03-29T07:28:19.092Z,8.40
2023-03-29T07:30:47.138Z,8.32
2023-03-29T07:33:18.623Z,8.65
2023-03-29T07:35:55.673Z,9.70
2023-03-29T07:38:23.696Z,10.27
2023-03-29T07:41:06.686Z,9.32
2023-03-29T07:43:46.842Z,8.80
2023-03-29T07:46:17.068Z,11.65
2023-03-29T07:48:44.977Z,10.55
2023-03-29T07:51:15.866Z,9.90
2023-03-29T07:53:45.966Z,9.10
2023-03-29T07:56:34.255Z,9.05
2023-03-29T07:59:15.300Z,8.27
2023-03-29T08:01:44.687Z,9.18
2023-03-29T08:04:24.315Z,9.88
2023-03-29T08:07:18.829Z,9.05
2023-03-29T08:10:09.976Z,10.40
2023-03-29T08:13:11.717Z,9.60
2023-03-29T08:16:09.413Z,8.30
2023-03-29T08:18:44.527Z,9.07
2023-03-29T08:21:14.583Z,7.82
2023-03-29T08:23:45.829Z,8.30
2023-03-29T08:26:27.756Z,7.78
2023-03-29T08:28:58.910Z,7.97
2023-03-29T08:31:28.614Z,8.43
2023-03-29T08:33:56.572Z,8.35
2023-03-29T08:36:43.141Z,8.07
2023-03-29T08:39:22.441Z,7.50
2023-03-29T08:42:17.981Z,7.15
2023-03-29T08:45:03.456Z,7.45
2023-03-29T08:47:38.785Z,7.35
2023-03-29T08:50:10.144Z,6.95
2023-03-29T08:52:47.499Z,7.40
2023-03-29T08:55:36.973Z,7.25
2023-03-29T08:58:26.046Z,7.65
2023-03-29T09:00:58.097Z,7.93
2023-03-29T09:03:27.878Z,7.72
2023-03-29T09:06:00.850Z,7.13
2023-03-29T09:08:28.736Z,7.18
2023-03-29T09:11:07.728Z,7.38
2023-03-29T09:13:45.070Z,7.45
2023-03-29T09:16:19.999Z,8.10
2023-03-29T09:18:57.668Z,6.22
2023-03-29T09:21:32.092Z,7.57
2023-03-29T09:24:22.084Z,7.30
2023-03-29T09:26:58.759Z,7.88
2023-03-29T09:29:42.147Z,8.52
2023-03-29T09:32:17.674Z,7.15
2023-03-29T09:34:51.012Z,7.63
2023-03-29T09:37:24.792Z,9.10
2023-03-29T09:39:53.751Z,8.23
2023-03-29T09:42:26.608Z,7.55
2023-03-29T09:44:57.618Z,6.43
2023-03-29T09:47:39.009Z,7.15
2023-03-29T09:50:23.440Z,7.50
2023-03-29T09:52:58.415Z,8.18
2023-03-29T09:55:28.551Z,7.30
2023-03-29T09:58:08.669Z,7.22
2023-03-29T10:00:40.276Z,7.38
2023-03-29T10:03:10.750Z,7.63
2023-03-29T10:05:51.860Z,7.75
2023-03-29T10:08:22.264Z,7.25
2023-03-29T10:10:49.975Z,6.85
2023-03-29T10:13:20.207Z,7.18
2023-03-29T10:16:04.481Z,7.05
2023-03-29T10:18:34.923Z,7.47
2023-03-29T10:21:04.937Z,7.82
2023-03-29T10:23:34.501Z,7.88
2023-03-29T10:26:04.463Z,7.28
2023-03-29T10:28:33.258Z,7.18
2023-03-29T10:31:03.672Z,7.13
2023-03-29T10:33:34.331Z,7.55
2023-03-29T10:36:05.210Z,7.47
2023-03-29T10:38:33.134Z,6.97
2023-03-29T10:41:06.821Z,7.97
2023-03-29T10:43:39.168Z,7.70
2023-03-29T10:46:09.040Z,7.90
2023-03-29T10:48:38.611Z,7.60
2023-03-29T10:51:07.527Z,8.50
2023-03-29T10:53:37.491Z,8.77
2023-03-29T10:56:15.170Z,8.68
2023-03-29T10:58:53.640Z,9.80
2023-03-29T11:01:27.588Z,9.80
2023-03-29T11:04:08.981Z,9.25
2023-03-29T11:06:40.066Z,9.32
2023-03-29T11:09:17.816Z,9.35
2023-03-29T11:12:04.472Z,8.43
2023-03-29T11:14:48.370Z,8.40
2023-03-29T11:17:24.747Z,10.55
2023-03-29T11:20:02.414Z,8.48
2023-03-29T11:22:39.690Z,11.98
2023-03-29T11:25:17.174Z,12.98
2023-03-29T11:27:52.196Z,8.70
2023-03-29T11:30:25.001Z,9.30
2023-03-29T11:32:57.747Z,8.75
2023-03-29T11:35:43.453Z,9.07
2023-03-29T11:38:17.893Z,9.13
2023-03-29T11:40:53.201Z,9.00
2023-03-29T11:43:25.107Z,8.57
2023-03-29T11:45:56.790Z,8.40
2023-03-29T11:48:27.527Z,8.40
2023-03-29T11:51:00.061Z,8.35
2023-03-29T11:53:31.459Z,9.23
2023-03-29T11:56:07.207Z,8.93
2023-03-29T11:58:38.849Z,9.07
2023-03-29T12:01:09.928Z,9.98
2023-03-29T12:03:41.063Z,10.32
2023-03-29T12:06:15.829Z,22.45
2023-03-29T12:08:46.786Z,14.13
2023-03-29T12:11:19.317Z,11.73
2023-03-29T12:13:52.340Z,9.85
2023-03-29T12:16:24.714Z,11.50
2023-03-29T12:18:55.643Z,11.30
2023-03-29T12:21:26.304Z,11.20
2023-03-29T12:23:55.271Z,11.23
2023-03-29T12:26:36.330Z,9.77
2023-03-29T12:29:27.843Z,12.95
2023-03-29T12:32:01.547Z,10.30
2023-03-29T12:34:51.686Z,10.13
2023-03-29T12:38:01.775Z,10.30
2023-03-29T12:41:12.624Z,10.27
2023-03-29T12:43:52.958Z,11.02
2023-03-29T12:46:44.023Z,12.55
2023-03-29T12:49:14.223Z,11.77
2023-03-29T12:51:43.686Z,11.07
2023-03-29T12:54:16.566Z,11.70
2023-03-29T12:56:56.328Z,11.15
2023-03-29T12:59:34.986Z,12.05
2023-03-29T13:02:08.542Z,12.18
2023-03-29T13:04:50.899Z,11.95
2023-03-29T13:07:31.131Z,13.05
2023-03-29T13:10:02.258Z,12.50
2023-03-29T13:12:33.588Z,12.65
2023-03-29T13:15:02.505Z,11.65
2023-03-29T13:17:36.360Z,11.88
2023-03-29T13:20:15.618Z,15.65
2023-03-29T13:22:52.209Z,12.43
2023-03-29T13:25:33.262Z,11.38
2023-03-29T13:28:07.339Z,12.02
2023-03-29T13:30:45.144Z,11.02
2023-03-29T13:33:23.060Z,11.90
2023-03-29T13:35:56.263Z,10.30
2023-03-29T13:38:27.686Z,10.15
2023-03-29T13:41:02.510Z,10.90
2023-03-29T13:43:35.722Z,10.70
2023-03-29T13:46:18.314Z,10.07
2023-03-29T13:48:52.629Z,15.18
2023-03-29T13:51:29.392Z,10.30
2023-03-29T13:54:00.635Z,10.88
2023-03-29T13:56:33.984Z,9.75
2023-03-29T13:59:05.547Z,11.18
2023-03-29T14:01:39.344Z,10.38
2023-03-29T14:04:08.378Z,11.45
2023-03-29T14:06:37.573Z,10.77
2023-03-29T14:09:07.253Z,11.65
2023-03-29T14:11:37.397Z,11.23
2023-03-29T14:14:06.337Z,10.95
2023-03-29T14:16:36.758Z,11.25
2023-03-29T14:19:05.630Z,11.95
2023-03-29T14:21:33.286Z,10.85
2023-03-29T14:24:02.834Z,10.07
2023-03-29T14:26:32.038Z,11.82
2023-03-29T14:29:02.805Z,11.32
2023-03-29T14:31:32.734Z,11.10
2023-03-29T14:34:02.418Z,12.05
2023-03-29T14:36:32.593Z,11.25
2023-03-29T14:39:04.036Z,11.30
2023-03-29T14:41:32.366Z,11.55
2023-03-29T14:44:02.972Z,11.98
2023-03-29T14:46:31.508Z,12.65
2023-03-29T14:48:59.749Z,12.43
2023-03-29T14:51:30.361Z,11.95
2023-03-29T14:53:59.096Z,12.13
2023-03-29T14:56:27.481Z,12.75
2023-03-29T14:58:56.652Z,12.27
2023-03-29T15:01:27.640Z,11.60
2023-03-29T15:03:57.515Z,11.55
2023-03-29T15:06:26.536Z,12.88
2023-03-29T15:09:04.466Z,12.32
2023-03-29T15:11:34.805Z,12.25
2023-03-29T15:14:04.383Z,11.52
2023-03-29T15:16:34.305Z,11.75
2023-03-29T15:19:02.474Z,11.18
2023-03-29T15:21:34.063Z,11.00
2023-03-29T15:24:04.256Z,11.75
2023-03-29T15:26:33.776Z,11.95
2023-03-29T15:29:08.939Z,12.60
2023-03-29T15:31:39.991Z,14.30
2023-03-29T15:34:09.630Z,13.02
2023-03-29T15:36:42.041Z,11.82
2023-03-29T15:39:12.648Z,12.20
2023-03-29T15:41:40.603Z,12.90
2023-03-29T15:44:08.433Z,12.27
2023-03-29T15:46:36.234Z,11.50
2023-03-29T15:49:05.640Z,12.13
2023-03-29T15:51:33.395Z,10.93
2023-03-29T15:54:01.141Z,12.00
2023-03-29T15:56:28.895Z,11.80
2023-03-29T15:58:56.601Z,11.93
2023-03-29T16:01:33.454Z,11.80
2023-03-29T16:04:02.008Z,12.25
2023-03-29T16:06:31.560Z,12.68
2023-03-29T16:08:59.494Z,12.65
2023-03-29T16:11:28.322Z,13.48
2023-03-29T16:13:56.141Z,13.38
2023-03-29T16:16:24.155Z,13.20
2023-03-29T16:18:51.968Z,13.00
2023-03-29T16:21:20.653Z,13.35
2023-03-29T16:23:49.737Z,15.38
2023-03-29T16:26:18.066Z,13.30
2023-03-29T16:28:46.502Z,12.80
2023-03-29T16:31:15.662Z,13.85
2023-03-29T16:33:43.374Z,13.80
2023-03-29T16:36:11.525Z,13.77
2023-03-29T16:38:39.333Z,13.55
2023-03-29T16:41:08.557Z,14.75
2023-03-29T16:43:38.690Z,12.60
2023-03-29T16:46:08.805Z,14.38
2023-03-29T16:48:37.210Z,15.52
2023-03-29T16:51:05.352Z,12.82
2023-03-29T16:53:34.324Z,12.10
2023-03-29T16:56:02.508Z,13.60
2023-03-29T16:58:31.954Z,15.07
2023-03-29T17:00:59.652Z,13.55
2023-03-29T17:03:27.686Z,13.77
2023-03-29T17:05:57.136Z,12.98
2023-03-29T17:08:24.894Z,12.35
2023-03-29T17:10:53.837Z,12.98
2023-03-29T17:13:23.628Z,15.27
2023-03-29T17:15:54.200Z,15.15
2023-03-29T17:18:22.790Z,13.77
2023-03-29T17:20:51.903Z,13.40
2023-03-29T17:23:20.060Z,14.60
2023-03-29T17:25:48.093Z,15.88
2023-03-29T17:28:15.856Z,14.52
2023-03-29T17:30:46.049Z,14.38
2023-03-29T17:33:15.555Z,13.43
2023-03-29T17:35:43.894Z,12.75
2023-03-29T17:38:11.648Z,13.73
2023-03-29T17:40:39.365Z,15.73
2023-03-29T17:43:06.995Z,15.25
2023-03-29T17:45:35.235Z,15.48
2023-03-29T17:48:06.062Z,17.30
2023-03-29T17:50:36.700Z,15.93
2023-03-29T17:53:05.315Z,16.50
2023-03-29T17:55:33.066Z,14.05
2023-03-29T17:58:01.053Z,13.95
2023-03-29T18:00:29.154Z,14.80
2023-03-29T18:02:57.588Z,17.80
2023-03-29T18:05:25.811Z,15.23
2023-03-29T18:07:56.412Z,14.52
2023-03-29T18:10:24.259Z,15.02
2023-03-29T18:12:52.688Z,15.60
2023-03-29T18:15:20.818Z,14.65
2023-03-29T18:17:48.949Z,14.35
2023-03-29T18:20:17.032Z,18.70
2023-03-29T18:22:44.874Z,17.13
2023-03-29T18:25:14.469Z,15.02
2023-03-29T18:27:42.105Z,15.98
2023-03-29T18:30:13.074Z,19.50
2023-03-29T18:32:41.272Z,16.35
2023-03-29T18:35:09.863Z,17.45
2023-03-29T18:37:37.580Z,16.83
2023-03-29T18:40:08.960Z,15.55
2023-03-29T18:42:38.224Z,15.02
2023-03-29T18:45:06.883Z,15.02
2023-03-29T18:47:34.611Z,14.55
2023-03-29T18:50:02.740Z,16.00
2023-03-29T18:52:30.551Z,15.52
2023-03-29T18:54:58.297Z,15.60
2023-03-29T18:57:26.016Z,14.82
2023-03-29T18:59:55.529Z,16.77
2023-03-29T19:02:23.276Z,16.25
2023-03-29T19:04:52.097Z,19.35
2023-03-29T19:07:20.679Z,19.42
2023-03-29T19:09:48.531Z,18.23
2023-03-29T19:12:16.245Z,17.70
2023-03-29T19:14:43.931Z,18.42
2023-03-29T19:17:13.361Z,20.83
2023-03-29T19:19:41.394Z,16.92
2023-03-29T19:22:09.137Z,21.10
2023-03-29T19:24:36.974Z,23.60
2023-03-29T19:27:06.456Z,18.52
2023-03-29T19:29:34.759Z,19.98
2023-03-29T19:32:02.504Z,16.98
2023-03-29T19:34:31.851Z,19.90
2023-03-29T19:37:01.408Z,18.15
2023-03-29T19:39:30.046Z,16.38
2023-03-29T19:41:57.753Z,18.92
2023-03-29T19:44:26.072Z,17.42
2023-03-29T19:46:53.921Z,18.60
2023-03-29T19:49:21.855Z,18.48
2023-03-29T19:51:54.253Z,19.50
2023-03-29T19:54:23.536Z,19.08
2023-03-29T19:56:52.840Z,19.42
2023-03-29T19:59:20.950Z,19.45
2023-03-29T20:01:51.644Z,19.40
2023-03-29T20:04:20.189Z,18.73
2023-03-29T20:06:48.013Z,18.15
2023-03-29T20:09:17.009Z,20.17
2023-03-29T20:11:46.548Z,18.73
2023-03-29T20:14:14.470Z,18.20
2023-03-29T20:16:43.359Z,20.38
2023-03-29T20:19:13.786Z,18.98
2023-03-29T20:21:41.521Z,19.17
2023-03-29T20:24:10.124Z,20.75
2023-03-29T20:26:39.655Z,21.73
2023-03-29T20:29:07.973Z,21.45
2023-03-29T20:31:35.704Z,21.05
2023-03-29T20:34:03.932Z,19.00
2023-03-29T20:36:32.009Z,19.67
2023-03-29T20:39:01.140Z,21.45
2023-03-29T20:41:28.968Z,22.27
2023-03-29T20:43:59.373Z,23.50
2023-03-29T20:46:33.212Z,22.73
2023-03-29T20:49:01.310Z,20.70
2023-03-29T20:51:30.402Z,21.40
2023-03-29T20:54:02.678Z,21.38
2023-03-29T20:56:30.668Z,21.17
2023-03-29T20:58:59.978Z,24.90
2023-03-29T21:01:29.447Z,19.98
2023-03-29T21:03:57.675Z,22.55
2023-03-29T21:06:26.064Z,23.42
2023-03-29T21:08:53.920Z,23.38
2023-03-29T21:11:21.803Z,22.67
2023-03-29T21:13:50.136Z,28.13
2023-03-29T21:16:20.896Z,22.80
2023-03-29T21:18:48.700Z,23.55
2023-03-29T21:21:16.450Z,22.23
2023-03-29T21:23:44.823Z,22.95
2023-03-29T21:26:12.534Z,24.25
2023-03-29T21:28:40.892Z,24.73
2023-03-29T21:31:09.466Z,27.15
2023-03-29T21:33:39.475Z,27.02
2023-03-29T21:36:08.272Z,24.48
2023-03-29T21:38:36.573Z,23.38
2023-03-29T21:41:04.466Z,26.85
2023-03-29T21:43:32.406Z,24.77
2023-03-29T21:46:00.164Z,23.40
2023-03-29T21:48:27.854Z,23.30
2023-03-29T21:50:56.907Z,25.08
2023-03-29T21:53:24.953Z,26.70
2023-03-29T21:55:53.093Z,23.48
2023-03-29T21:58:21.884Z,24.45
2023-03-29T22:00:50.039Z,25.20
2023-03-29T22:03:18.077Z,27.40
2023-03-29T22:05:58.208Z,25.08
2023-03-29T22:08:27.192Z,30.90
2023-03-29T22:10:56.601Z,25.58
2023-03-29T22:13:26.166Z,28.85
2023-03-29T22:15:58.621Z,27.85
2023-03-29T22:18:27.950Z,29.90
2023-03-29T22:20:58.585Z,28.58
2023-03-29T22:23:26.258Z,28.50
2023-03-29T22:25:54.181Z,31.73
2023-03-29T22:28:22.077Z,27.17
2023-03-29T22:30:49.908Z,26.33
2023-03-29T22:33:17.654Z,27.60
2023-03-29T22:35:45.549Z,27.50
2023-03-29T22:38:14.652Z,29.17
2023-03-29T22:40:42.377Z,31.10
2023-03-29T22:43:10.046Z,30.83
2023-03-29T22:45:37.775Z,29.95
2023-03-29T22:48:05.958Z,29.75
2023-03-29T22:50:33.814Z,28.60
2023-03-29T22:53:01.511Z,29.25
2023-03-29T22:55:31.103Z,31.50
2023-03-29T22:57:58.862Z,26.77
2023-03-29T23:00:27.044Z,30.38
2023-03-29T23:02:54.887Z,33.15
2023-03-29T23:05:23.004Z,33.20
2023-03-29T23:07:50.968Z,31.75
2023-03-29T23:10:18.850Z,31.77
2023-03-29T23:12:49.634Z,30.77
2023-03-29T23:15:23.149Z,28.65
2023-03-29T23:17:50.958Z,31.73
2023-03-29T23:20:20.944Z,29.20
2023-03-29T23:22:48.972Z,28.42
2023-03-29T23:25:17.404Z,32.15
2023-03-29T23:27:45.078Z,25.45
2023-03-29T23:30:14.430Z,31.17
2023-03-29T23:32:42.948Z,31.95
2023-03-29T23:35:10.780Z,31.77
2023-03-29T23:37:39.426Z,31.92
2023-03-29T23:40:11.588Z,32.22
2023-03-29T23:42:39.983Z,28.95
2023-03-29T23:45:09.890Z,30.58
2023-03-29T23:47:40.063Z,33.20
2023-03-29T23:50:09.390Z,29.88
2023-03-29T23:52:37.771Z,30.52
2023-03-29T23:55:06.667Z,35.15
2023-03-29T23:57:34.975Z,29.23
